createdAt,value
2022-10-13T00:01:12.948Z,96.03
2022-10-13T00:03:40.915Z,95.40
2022-10-13T00:06:08.881Z,94.78
2022-10-13T00:08:36.685Z,96.59
2022-10-13T00:11:10.694Z,96.57
2022-10-13T00:13:37.544Z,95.90
2022-10-13T00:16:04.440Z,96.05
2022-10-13T00:18:30.923Z,95.49
2022-10-13T00:20:57.498Z,95.47
2022-10-13T00:23:24.655Z,95.18
2022-10-13T00:25:51.661Z,94.81
2022-10-13T00:28:19.467Z,94.84
2022-10-13T00:30:47.065Z,95.12
2022-10-13T00:33:14.135Z,95.11
2022-10-13T00:35:45.686Z,94.77
2022-10-13T00:38:12.544Z,95.60
2022-10-13T00:40:49.185Z,94.47
2022-10-13T00:43:20.096Z,94.15
2022-10-13T00:45:49.938Z,94.06
2022-10-13T00:48:25.994Z,94.84
2022-10-13T00:50:53.066Z,93.73
2022-10-13T00:53:22.240Z,94.25
2022-10-13T00:55:50.686Z,95.33
2022-10-13T00:58:19.519Z,96.87
2022-10-13T01:00:47.771Z,97.04
2022-10-13T01:03:14.854Z,97.02
2022-10-13T01:05:41.948Z,96.47
2022-10-13T01:08:09.573Z,96.48
2022-10-13T01:10:42.181Z,96.43
2022-10-13T01:13:31.894Z,95.51
2022-10-13T01:16:06.737Z,94.78
2022-10-13T01:18:39.036Z,94.34
2022-10-13T01:21:25.839Z,93.35
2022-10-13T01:24:20.258Z,93.21
2022-10-13T01:27:22.649Z,93.87
2022-10-13T01:30:09.590Z,94.17
2022-10-13T01:32:42.105Z,93.52
2022-10-13T01:35:12.194Z,93.05
2022-10-13T01:37:47.295Z,94.13
2022-10-13T01:40:26.181Z,95.73
2022-10-13T01:43:02.149Z,94.27
2022-10-13T01:45:38.513Z,94.85
2022-10-13T01:48:06.246Z,95.46
2022-10-13T01:50:33.729Z,95.81
2022-10-13T01:53:02.496Z,96.21
2022-10-13T01:55:29.779Z,94.90
2022-10-13T01:57:56.331Z,95.43
2022-10-13T02:00:23.104Z,94.51
2022-10-13T02:03:26.629Z,95.07
2022-10-13T02:05:59.222Z,95.16
2022-10-13T02:08:31.532Z,95.99
2022-10-13T02:11:14.475Z,96.00
2022-10-13T02:13:45.377Z,95.55
2022-10-13T02:16:13.350Z,95.89
2022-10-13T02:18:40.549Z,94.65
2022-10-13T02:21:07.305Z,95.02
2022-10-13T02:23:33.842Z,95.49
2022-10-13T02:26:00.590Z,95.22
2022-10-13T02:28:27.879Z,94.82
2022-10-13T02:30:56.979Z,94.52
2022-10-13T02:33:23.460Z,94.12
2022-10-13T02:35:50.034Z,93.94
2022-10-13T02:38:16.479Z,93.89
2022-10-13T02:40:42.960Z,94.68
2022-10-13T02:43:09.447Z,95.40
2022-10-13T02:45:36.006Z,94.74
2022-10-13T02:48:02.927Z,94.78
2022-10-13T02:50:29.627Z,94.93
2022-10-13T02:52:56.084Z,95.40
2022-10-13T02:55:22.555Z,94.55
2022-10-13T02:57:49.123Z,94.28
2022-10-13T03:00:16.630Z,94.28
2022-10-13T03:02:43.234Z,94.51
2022-10-13T03:05:10.348Z,94.42
2022-10-13T03:07:36.896Z,94.07
2022-10-13T03:10:04.980Z,94.73
2022-10-13T03:12:31.498Z,95.44
2022-10-13T03:14:57.952Z,94.39
2022-10-13T03:17:24.420Z,93.40
2022-10-13T03:19:50.975Z,93.57
2022-10-13T03:22:17.769Z,94.22
2022-10-13T03:24:46.686Z,93.96
2022-10-13T03:27:13.261Z,93.41
2022-10-13T03:29:39.803Z,95.23
2022-10-13T03:32:06.383Z,95.13
2022-10-13T03:34:32.900Z,95.11
2022-10-13T03:36:59.413Z,94.65
2022-10-13T03:39:26.042Z,93.94
2022-10-13T03:41:52.672Z,93.71
2022-10-13T03:44:19.858Z,94.03
2022-10-13T03:46:46.503Z,95.08
2022-10-13T03:49:13.069Z,95.47
2022-10-13T03:51:39.565Z,96.13
2022-10-13T03:54:06.154Z,97.25
2022-10-13T03:56:35.939Z,96.25
2022-10-13T03:59:04.813Z,96.74
2022-10-13T04:01:32.628Z,97.69
2022-10-13T04:04:02.193Z,98.22
2022-10-13T04:06:29.033Z,98.36
2022-10-13T04:08:55.545Z,98.86
2022-10-13T04:11:22.170Z,97.09
2022-10-13T04:13:48.890Z,97.70
2022-10-13T04:16:18.448Z,97.20
2022-10-13T04:18:45.950Z,96.62
2022-10-13T04:21:14.747Z,95.64
2022-10-13T04:23:41.280Z,94.72
2022-10-13T04:26:14.172Z,94.72
2022-10-13T04:28:40.710Z,95.28
2022-10-13T04:31:07.333Z,95.39
2022-10-13T04:33:33.863Z,95.22
2022-10-13T04:36:04.562Z,95.60
2022-10-13T04:38:31.149Z,96.04
2022-10-13T04:40:57.682Z,95.70
2022-10-13T04:43:24.236Z,95.50
2022-10-13T04:45:50.732Z,95.31
2022-10-13T04:48:17.191Z,95.33
2022-10-13T04:50:43.899Z,96.09
2022-10-13T04:53:13.229Z,96.46
2022-10-13T04:55:43.211Z,96.83
2022-10-13T04:58:09.615Z,96.22
2022-10-13T05:00:36.187Z,96.38
2022-10-13T05:03:02.769Z,95.70
2022-10-13T05:05:29.276Z,97.17
2022-10-13T05:07:55.831Z,98.02
2022-10-13T05:10:22.409Z,99.91
2022-10-13T05:12:48.970Z,100.00
2022-10-13T05:15:15.733Z,100.00
2022-10-13T05:17:42.389Z,100.00
2022-10-13T05:20:10.080Z,99.49
2022-10-13T05:22:36.648Z,99.92
2022-10-13T05:25:03.610Z,100.00
2022-10-13T05:27:30.177Z,100.00
2022-10-13T05:29:56.735Z,100.00
2022-10-13T05:32:23.363Z,99.49
2022-10-13T05:34:49.890Z,99.31
2022-10-13T05:37:22.204Z,99.17
2022-10-13T05:39:49.118Z,99.14
2022-10-13T05:42:15.713Z,98.46
2022-10-13T05:44:44.229Z,97.98
2022-10-13T05:47:10.754Z,98.70
2022-10-13T05:49:39.870Z,100.00
2022-10-13T05:52:09.514Z,99.37
2022-10-13T05:54:44.197Z,99.46
2022-10-13T05:57:14.620Z,99.60
2022-10-13T05:59:46.007Z,98.83
2022-10-13T06:02:15.190Z,98.44
2022-10-13T06:04:45.940Z,98.50
2022-10-13T06:07:13.055Z,99.13
2022-10-13T06:09:40.547Z,98.97
2022-10-13T06:12:08.582Z,99.18
2022-10-13T06:14:38.156Z,99.62
2022-10-13T06:17:05.150Z,98.08
2022-10-13T06:19:31.662Z,97.59
2022-10-13T06:22:03.261Z,97.08
2022-10-13T06:24:30.514Z,97.42
2022-10-13T06:26:57.067Z,97.83
2022-10-13T06:29:23.697Z,99.64
2022-10-13T06:31:50.199Z,98.27
2022-10-13T06:34:16.666Z,98.02
2022-10-13T06:36:43.231Z,97.52
2022-10-13T06:39:10.435Z,96.96
2022-10-13T06:41:36.887Z,97.45
2022-10-13T06:44:03.706Z,97.57
2022-10-13T06:46:30.339Z,97.74
2022-10-13T06:48:56.832Z,97.96
2022-10-13T06:51:23.349Z,98.08
2022-10-13T06:53:50.095Z,98.05
2022-10-13T06:56:16.587Z,97.31
2022-10-13T06:58:43.083Z,97.18
2022-10-13T07:01:13.093Z,96.58
2022-10-13T07:03:41.875Z,96.12
2022-10-13T07:06:08.487Z,96.65
2022-10-13T07:08:35.415Z,96.83
2022-10-13T07:11:16.327Z,97.21
2022-10-13T07:13:46.399Z,96.94
2022-10-13T07:16:14.936Z,97.06
2022-10-13T07:18:41.575Z,96.23
2022-10-13T07:21:08.172Z,96.31
2022-10-13T07:23:34.782Z,95.98
2022-10-13T07:26:01.875Z,96.07
2022-10-13T07:28:29.189Z,95.70
2022-10-13T07:30:55.750Z,95.87
2022-10-13T07:33:22.422Z,96.45
2022-10-13T07:35:52.014Z,97.09
2022-10-13T07:38:18.743Z,96.00
2022-10-13T07:40:45.353Z,95.58
2022-10-13T07:43:11.944Z,96.04
2022-10-13T07:45:38.453Z,95.46
2022-10-13T07:48:05.302Z,95.85
2022-10-13T07:50:31.900Z,95.33
2022-10-13T07:52:58.979Z,95.38
2022-10-13T07:55:25.558Z,95.79
2022-10-13T07:57:52.382Z,95.59
2022-10-13T08:00:19.123Z,95.96
2022-10-13T08:02:49.698Z,96.42
2022-10-13T08:05:17.630Z,96.54
2022-10-13T08:07:44.449Z,96.62
2022-10-13T08:10:11.439Z,96.99
2022-10-13T08:12:38.317Z,96.86
2022-10-13T08:15:06.502Z,96.22
2022-10-13T08:17:33.562Z,96.80
2022-10-13T08:20:00.146Z,97.15
2022-10-13T08:22:28.466Z,96.52
2022-10-13T08:24:55.981Z,96.68
2022-10-13T08:27:26.635Z,96.58
2022-10-13T08:30:06.090Z,96.49
2022-10-13T08:32:35.904Z,95.83
2022-10-13T08:35:02.509Z,96.32
2022-10-13T08:37:29.289Z,96.83
2022-10-13T08:39:56.951Z,97.29
2022-10-13T08:42:23.495Z,97.63
2022-10-13T08:45:28.384Z,97.68
2022-10-13T08:47:39.713Z,97.63
2022-10-13T08:50:24.075Z,98.15
2022-10-13T08:52:57.553Z,97.08
2022-10-13T08:55:44.524Z,96.46
2022-10-13T08:58:31.562Z,97.94
2022-10-13T09:01:06.983Z,97.42
2022-10-13T09:03:57.601Z,97.40
2022-10-13T09:06:31.617Z,97.08
2022-10-13T09:09:00.901Z,96.72
2022-10-13T09:11:30.748Z,96.91
2022-10-13T09:14:00.144Z,96.75
2022-10-13T09:16:34.506Z,96.23
2022-10-13T09:19:25.921Z,95.99
2022-10-13T09:21:57.593Z,96.51
2022-10-13T09:24:26.135Z,95.82
2022-10-13T09:27:21.981Z,95.36
2022-10-13T09:29:48.521Z,95.09
2022-10-13T09:32:21.886Z,95.36
2022-10-13T09:34:49.225Z,95.03
2022-10-13T09:37:22.321Z,95.30
2022-10-13T09:40:16.758Z,94.72
2022-10-13T09:42:50.728Z,94.72
2022-10-13T09:45:19.832Z,94.27
2022-10-13T09:47:50.871Z,94.40
2022-10-13T09:50:19.653Z,94.21
2022-10-13T09:52:47.739Z,94.25
2022-10-13T09:55:33.192Z,93.79
2022-10-13T09:58:27.432Z,92.78
2022-10-13T10:00:54.728Z,93.16
2022-10-13T10:03:32.593Z,93.35
2022-10-13T10:06:07.369Z,93.45
2022-10-13T10:09:02.691Z,91.73
2022-10-13T10:11:31.056Z,93.31
2022-10-13T10:13:57.899Z,91.64
2022-10-13T10:16:41.017Z,91.95
2022-10-13T10:19:21.966Z,92.24
2022-10-13T10:22:19.753Z,92.57
2022-10-13T10:25:12.930Z,93.15
2022-10-13T10:27:45.655Z,93.23
2022-10-13T10:30:22.207Z,93.14
2022-10-13T10:33:01.352Z,92.24
2022-10-13T10:35:44.863Z,92.34
2022-10-13T10:38:16.981Z,91.98
2022-10-13T10:40:57.040Z,92.35
2022-10-13T10:43:46.055Z,92.30
2022-10-13T10:46:25.843Z,92.47
2022-10-13T10:48:56.476Z,92.46
2022-10-13T10:51:33.769Z,92.37
2022-10-13T10:54:21.722Z,92.99
2022-10-13T10:56:54.419Z,92.81
2022-10-13T10:59:32.189Z,92.80
2022-10-13T11:02:13.091Z,93.56
2022-10-13T11:04:46.394Z,92.65
2022-10-13T11:07:22.151Z,93.13
2022-10-13T11:09:48.544Z,91.82
2022-10-13T11:12:23.013Z,92.28
2022-10-13T11:15:14.272Z,93.50
2022-10-13T11:17:41.929Z,91.24
2022-10-13T11:20:20.561Z,90.90
2022-10-13T11:23:00.358Z,90.42
2022-10-13T11:25:47.109Z,89.56
2022-10-13T11:28:22.770Z,90.38
2022-10-13T11:31:12.423Z,89.91
2022-10-13T11:33:38.800Z,90.16
2022-10-13T11:36:56.759Z,90.37
2022-10-13T11:39:23.164Z,90.72
2022-10-13T11:42:03.338Z,90.54
2022-10-13T11:44:51.813Z,91.33
2022-10-13T11:47:40.420Z,90.27
2022-10-13T11:50:46.862Z,89.72
2022-10-13T11:53:21.884Z,89.75
2022-10-13T11:55:53.689Z,90.46
2022-10-13T11:58:20.210Z,90.70
2022-10-13T12:00:59.898Z,90.10
2022-10-13T12:03:26.388Z,89.90
2022-10-13T12:05:56.556Z,89.81
2022-10-13T12:08:25.894Z,89.47
2022-10-13T12:10:57.382Z,88.86
2022-10-13T12:13:28.776Z,88.84
2022-10-13T12:16:16.694Z,87.98
2022-10-13T12:18:43.537Z,88.20
2022-10-13T12:21:13.514Z,87.63
2022-10-13T12:23:45.601Z,87.91
2022-10-13T12:26:21.085Z,87.18
2022-10-13T12:29:04.522Z,86.78
2022-10-13T12:31:43.962Z,87.85
2022-10-13T12:34:29.055Z,87.36
2022-10-13T12:37:35.384Z,87.80
2022-10-13T12:40:07.310Z,87.44
2022-10-13T12:42:36.238Z,87.43
2022-10-13T12:45:03.346Z,86.55
2022-10-13T12:47:49.607Z,86.97
2022-10-13T12:50:25.369Z,88.03
2022-10-13T12:53:14.850Z,88.30
2022-10-13T12:56:01.236Z,87.57
2022-10-13T12:58:36.626Z,87.76
2022-10-13T13:01:20.026Z,87.67
2022-10-13T13:03:54.553Z,87.30
2022-10-13T13:06:24.283Z,86.87
2022-10-13T13:09:25.451Z,87.94
2022-10-13T13:12:10.164Z,89.28
2022-10-13T13:14:41.790Z,88.43
2022-10-13T13:17:45.235Z,88.57
2022-10-13T13:20:31.496Z,88.61
2022-10-13T13:22:58.640Z,89.66
2022-10-13T13:25:25.325Z,90.03
2022-10-13T13:27:52.199Z,89.29
2022-10-13T13:30:26.078Z,89.43
2022-10-13T13:32:52.641Z,90.14
2022-10-13T13:35:19.188Z,90.13
2022-10-13T13:37:49.758Z,91.23
2022-10-13T13:40:30.498Z,91.28
2022-10-13T13:42:56.968Z,91.52
2022-10-13T13:45:24.906Z,92.17
2022-10-13T13:47:57.979Z,93.51
2022-10-13T13:50:37.154Z,93.05
2022-10-13T13:53:04.673Z,93.27
2022-10-13T13:55:31.136Z,92.43
2022-10-13T13:57:58.219Z,92.78
2022-10-13T14:00:24.905Z,93.04
2022-10-13T14:02:51.559Z,94.25
2022-10-13T14:05:18.010Z,94.57
2022-10-13T14:07:44.511Z,94.90
2022-10-13T14:10:11.263Z,95.94
2022-10-13T14:12:37.838Z,96.60
2022-10-13T14:15:04.765Z,96.42
2022-10-13T14:17:47.683Z,96.18
2022-10-13T14:20:14.323Z,95.15
2022-10-13T14:22:40.950Z,96.33
2022-10-13T14:25:08.017Z,96.33
2022-10-13T14:27:35.080Z,97.93
2022-10-13T14:30:03.870Z,97.57
2022-10-13T14:32:30.361Z,97.27
2022-10-13T14:34:56.873Z,97.35
2022-10-13T14:37:25.858Z,97.57
2022-10-13T14:39:55.622Z,98.02
2022-10-13T14:42:22.164Z,98.37
2022-10-13T14:44:48.794Z,99.13
2022-10-13T14:47:15.380Z,98.88
2022-10-13T14:49:41.947Z,99.69
2022-10-13T14:52:08.801Z,100.00
2022-10-13T14:54:44.692Z,100.00
2022-10-13T14:57:16.358Z,100.00
2022-10-13T14:59:43.513Z,100.00
2022-10-13T15:02:11.491Z,100.00
2022-10-13T15:04:41.034Z,100.00
2022-10-13T15:07:07.651Z,100.00
2022-10-13T15:09:52.366Z,100.00
2022-10-13T15:12:23.184Z,100.00
2022-10-13T15:14:50.140Z,100.00
2022-10-13T15:17:16.820Z,100.00
2022-10-13T15:19:46.601Z,100.00
2022-10-13T15:22:13.354Z,100.00
2022-10-13T15:24:43.394Z,100.00
2022-10-13T15:27:09.985Z,100.00
2022-10-13T15:29:36.655Z,100.00
2022-10-13T15:32:18.555Z,100.00
2022-10-13T15:34:45.638Z,100.00
2022-10-13T15:37:12.623Z,100.00
2022-10-13T15:39:39.131Z,100.00
2022-10-13T15:42:08.113Z,100.00
2022-10-13T15:44:57.343Z,100.00
2022-10-13T15:47:21.264Z,100.00
2022-10-13T15:49:47.901Z,100.00
2022-10-13T15:52:17.620Z,100.00
2022-10-13T15:54:44.321Z,100.00
2022-10-13T15:57:14.611Z,100.00
2022-10-13T15:59:41.252Z,100.00
2022-10-13T16:02:08.983Z,100.00
2022-10-13T16:04:38.454Z,100.00
2022-10-13T16:07:05.209Z,100.00
2022-10-13T16:09:31.809Z,100.00
2022-10-13T16:11:58.367Z,100.00
2022-10-13T16:14:24.891Z,100.00
2022-10-13T16:16:51.472Z,100.00
2022-10-13T16:19:18.073Z,100.00
2022-10-13T16:21:47.783Z,100.00
2022-10-13T16:24:14.945Z,100.00
2022-10-13T16:26:55.065Z,100.00
2022-10-13T16:29:24.697Z,100.00
2022-10-13T16:31:54.294Z,100.00
2022-10-13T16:34:24.988Z,100.00
2022-10-13T16:36:54.530Z,100.00
2022-10-13T16:39:29.742Z,100.00
2022-10-13T16:41:56.381Z,100.00
2022-10-13T16:44:25.959Z,100.00
2022-10-13T16:46:53.886Z,100.00
2022-10-13T16:49:20.315Z,100.00
2022-10-13T16:51:46.846Z,100.00
2022-10-13T16:54:13.410Z,100.00
2022-10-13T16:56:40.200Z,100.00
2022-10-13T16:59:07.000Z,100.00
2022-10-13T17:01:34.868Z,100.00
2022-10-13T17:04:01.806Z,100.00
2022-10-13T17:06:29.112Z,100.00
2022-10-13T17:08:59.897Z,100.00
2022-10-13T17:11:29.076Z,100.00
2022-10-13T17:13:56.880Z,100.00
2022-10-13T17:16:27.354Z,100.00
2022-10-13T17:18:57.324Z,100.00
2022-10-13T17:21:24.112Z,100.00
2022-10-13T17:23:50.769Z,100.00
2022-10-13T17:26:25.313Z,100.00
2022-10-13T17:28:52.061Z,100.00
2022-10-13T17:31:22.909Z,100.00
2022-10-13T17:33:50.769Z,100.00
2022-10-13T17:36:24.834Z,100.00
2022-10-13T17:38:55.972Z,100.00
2022-10-13T17:41:27.168Z,100.00
2022-10-13T17:43:53.753Z,100.00
2022-10-13T17:46:36.964Z,100.00
2022-10-13T17:49:15.050Z,100.00
2022-10-13T17:51:54.380Z,100.00
2022-10-13T17:54:21.113Z,100.00
2022-10-13T17:56:50.569Z,100.00
2022-10-13T17:59:20.709Z,100.00
2022-10-13T18:01:49.966Z,100.00
2022-10-13T18:04:19.144Z,100.00
2022-10-13T18:06:46.211Z,100.00
2022-10-13T18:09:22.717Z,100.00
2022-10-13T18:11:51.001Z,100.00
2022-10-13T18:14:19.600Z,100.00
2022-10-13T18:16:53.195Z,100.00
2022-10-13T18:19:22.629Z,100.00
2022-10-13T18:21:51.363Z,100.00
2022-10-13T18:24:18.088Z,100.00
2022-10-13T18:26:51.723Z,100.00
2022-10-13T18:29:18.349Z,100.00
2022-10-13T18:31:44.824Z,100.00
2022-10-13T18:34:17.238Z,100.00
2022-10-13T18:36:47.937Z,99.88
2022-10-13T18:39:26.634Z,100.00
2022-10-13T18:41:54.318Z,99.90
2022-10-13T18:44:21.399Z,99.86
2022-10-13T18:46:54.729Z,100.00
2022-10-13T18:49:23.874Z,100.00
2022-10-13T18:51:51.684Z,100.00
2022-10-13T18:54:18.219Z,100.00
2022-10-13T18:56:44.804Z,100.00
2022-10-13T18:59:11.441Z,100.00
2022-10-13T19:01:38.780Z,99.65
2022-10-13T19:04:05.886Z,99.62
2022-10-13T19:06:32.889Z,100.00
2022-10-13T19:09:04.829Z,100.00
2022-10-13T19:11:32.957Z,99.67
2022-10-13T19:14:00.301Z,99.92
2022-10-13T19:16:29.510Z,99.33
2022-10-13T19:18:56.536Z,99.39
2022-10-13T19:21:24.468Z,99.30
2022-10-13T19:23:51.058Z,99.12
2022-10-13T19:26:23.909Z,98.66
2022-10-13T19:28:55.904Z,100.00
2022-10-13T19:31:28.815Z,100.00
2022-10-13T19:33:55.800Z,99.91
2022-10-13T19:36:31.780Z,100.00
2022-10-13T19:38:59.796Z,100.00
2022-10-13T19:41:28.898Z,100.00
2022-10-13T19:43:55.695Z,100.00
2022-10-13T19:46:23.847Z,100.00
2022-10-13T19:48:50.554Z,99.51
2022-10-13T19:51:17.503Z,99.98
2022-10-13T19:53:44.258Z,99.44
2022-10-13T19:56:22.570Z,98.91
2022-10-13T19:58:49.127Z,99.33
2022-10-13T20:01:15.687Z,98.98
2022-10-13T20:03:42.306Z,99.23
2022-10-13T20:06:09.329Z,98.37
2022-10-13T20:08:35.809Z,98.92
2022-10-13T20:11:10.567Z,98.44
2022-10-13T20:13:37.365Z,98.96
2022-10-13T20:16:12.761Z,99.05
2022-10-13T20:18:39.478Z,98.53
2022-10-13T20:21:08.091Z,98.59
2022-10-13T20:23:35.321Z,98.29
2022-10-13T20:26:06.890Z,98.29
2022-10-13T20:28:33.813Z,98.98
2022-10-13T20:31:04.440Z,98.70
2022-10-13T20:33:32.524Z,98.03
2022-10-13T20:36:01.051Z,98.08
2022-10-13T20:38:30.142Z,98.45
2022-10-13T20:41:14.284Z,98.05
2022-10-13T20:43:40.865Z,98.37
2022-10-13T20:46:08.314Z,98.11
2022-10-13T20:48:58.146Z,98.37
2022-10-13T20:51:31.363Z,98.33
2022-10-13T20:53:57.877Z,99.34
2022-10-13T20:56:26.140Z,99.02
2022-10-13T20:58:53.183Z,98.56
2022-10-13T21:01:21.390Z,98.25
2022-10-13T21:03:52.410Z,98.06
2022-10-13T21:06:18.953Z,98.07
2022-10-13T21:08:46.636Z,97.85
2022-10-13T21:11:14.992Z,98.07
2022-10-13T21:13:44.111Z,98.05
2022-10-13T21:16:13.440Z,98.22
2022-10-13T21:18:40.221Z,98.18
2022-10-13T21:21:09.001Z,98.72
2022-10-13T21:23:36.417Z,98.39
2022-10-13T21:26:08.480Z,100.00
2022-10-13T21:28:37.619Z,99.85
2022-10-13T21:31:09.836Z,99.34
2022-10-13T21:33:37.349Z,99.40
2022-10-13T21:36:18.792Z,99.20
2022-10-13T21:38:46.499Z,99.28
2022-10-13T21:41:14.035Z,99.39
2022-10-13T21:43:40.978Z,99.19
2022-10-13T21:46:09.125Z,99.82
2022-10-13T21:48:36.198Z,100.00
2022-10-13T21:51:24.965Z,100.00
2022-10-13T21:53:53.890Z,99.68
2022-10-13T21:56:21.190Z,99.49
2022-10-13T21:58:49.011Z,100.00
2022-10-13T22:01:17.004Z,100.00
2022-10-13T22:03:43.718Z,100.00
2022-10-13T22:06:19.032Z,99.67
2022-10-13T22:08:47.698Z,99.52
2022-10-13T22:11:15.150Z,99.33
2022-10-13T22:13:41.691Z,100.00
2022-10-13T22:16:14.575Z,100.00
2022-10-13T22:18:41.978Z,100.00
2022-10-13T22:21:11.377Z,100.00
2022-10-13T22:23:37.890Z,100.00
2022-10-13T22:26:04.487Z,100.00
2022-10-13T22:28:36.827Z,100.00
2022-10-13T22:31:13.293Z,100.00
2022-10-13T22:33:41.255Z,100.00
2022-10-13T22:36:14.497Z,100.00
2022-10-13T22:38:41.267Z,100.00
2022-10-13T22:41:08.624Z,100.00
2022-10-13T22:43:38.025Z,100.00
2022-10-13T22:46:04.833Z,100.00
2022-10-13T22:48:35.819Z,100.00
2022-10-13T22:51:07.759Z,100.00
2022-10-13T22:53:34.820Z,100.00
2022-10-13T22:56:05.269Z,99.91
2022-10-13T22:58:31.814Z,99.69
2022-10-13T23:01:04.910Z,100.00
2022-10-13T23:03:31.406Z,100.00
2022-10-13T23:05:57.932Z,100.00
2022-10-13T23:08:24.505Z,100.00
2022-10-13T23:10:51.120Z,99.99
2022-10-13T23:13:17.588Z,99.90
2022-10-13T23:15:44.212Z,99.96
2022-10-13T23:18:10.769Z,100.00
2022-10-13T23:20:41.177Z,100.00
2022-10-13T23:23:07.728Z,100.00
2022-10-13T23:25:35.103Z,100.00
2022-10-13T23:28:01.959Z,100.00
2022-10-13T23:30:28.467Z,100.00
2022-10-13T23:32:55.111Z,100.00
2022-10-13T23:35:21.677Z,100.00
2022-10-13T23:37:48.252Z,100.00
2022-10-13T23:40:14.919Z,100.00
2022-10-13T23:42:41.443Z,100.00
2022-10-13T23:45:08.521Z,100.00
2022-10-13T23:47:35.043Z,100.00
2022-10-13T23:50:01.600Z,100.00
2022-10-13T23:52:28.142Z,100.00
2022-10-13T23:54:54.731Z,100.00
2022-10-13T23:57:21.554Z,100.00
2022-10-13T23:59:48.256Z,100.00
